sensor_id;sensor_type;location;lat;lon;timestamp;temperature;humidity
23520;DHT22;11936;50.820;4.336;2023-04-21T00:00:55;10.60;99.90
23520;DHT22;11936;50.820;4.336;2023-04-21T00:03:21;10.70;99.90
23520;DHT22;11936;50.820;4.336;2023-04-21T00:05:49;10.80;99.90
23520;DHT22;11936;50.820;4.336;2023-04-21T00:08:15;10.70;99.90
23520;DHT22;11936;50.820;4.336;2023-04-21T00:10:41;10.70;99.90
23520;DHT22;11936;50.820;4.336;2023-04-21T00:13:07;10.70;99.90
23520;DHT22;11936;50.820;4.336;2023-04-21T00:15:32;10.60;99.90
23520;DHT22;11936;50.820;4.336;2023-04-21T00:17:58;10.50;99.90
23520;DHT22;11936;50.820;4.336;2023-04-21T00:20:24;10.50;99.90
23520;DHT22;11936;50.820;4.336;2023-04-21T00:22:54;10.50;99.90
23520;DHT22;11936;50.820;4.336;2023-04-21T00:25:20;10.60;99.90
23520;DHT22;11936;50.820;4.336;2023-04-21T00:27:45;10.60;99.90
23520;DHT22;11936;50.820;4.336;2023-04-21T00:30:11;10.50;99.90
23520;DHT22;11936;50.820;4.336;2023-04-21T00:32:37;10.70;99.90
23520;DHT22;11936;50.820;4.336;2023-04-21T00:35:03;10.80;99.90
23520;DHT22;11936;50.820;4.336;2023-04-21T00:37:29;10.70;99.90
23520;DHT22;11936;50.820;4.336;2023-04-21T00:39:55;10.70;99.90
23520;DHT22;11936;50.820;4.336;2023-04-21T00:42:21;10.70;99.90
23520;DHT22;11936;50.820;4.336;2023-04-21T00:44:47;10.80;99.90
23520;DHT22;11936;50.820;4.336;2023-04-21T00:47:12;10.80;99.90
23520;DHT22;11936;50.820;4.336;2023-04-21T00:49:38;10.80;99.90
23520;DHT22;11936;50.820;4.336;2023-04-21T00:52:04;10.80;99.90
23520;DHT22;11936;50.820;4.336;2023-04-21T00:54:31;10.80;99.90
23520;DHT22;11936;50.820;4.336;2023-04-21T00:56:56;10.90;99.90
23520;DHT22;11936;50.820;4.336;2023-04-21T00:59:23;10.80;99.90
23520;DHT22;11936;50.820;4.336;2023-04-21T01:01:49;10.90;99.90
23520;DHT22;11936;50.820;4.336;2023-04-21T01:04:14;10.90;99.90
23520;DHT22;11936;50.820;4.336;2023-04-21T01:06:41;10.80;99.90
23520;DHT22;11936;50.820;4.336;2023-04-21T01:09:07;10.90;99.90
23520;DHT22;11936;50.820;4.336;2023-04-21T01:11:33;10.90;99.90
23520;DHT22;11936;50.820;4.336;2023-04-21T01:13:58;10.90;99.90
23520;DHT22;11936;50.820;4.336;2023-04-21T01:16:24;10.80;99.90
23520;DHT22;11936;50.820;4.336;2023-04-21T01:18:51;10.80;99.90
23520;DHT22;11936;50.820;4.336;2023-04-21T01:21:18;10.70;99.90
23520;DHT22;11936;50.820;4.336;2023-04-21T01:23:44;10.80;99.90
23520;DHT22;11936;50.820;4.336;2023-04-21T01:26:10;10.80;99.90
23520;DHT22;11936;50.820;4.336;2023-04-21T01:28:36;10.80;99.90
23520;DHT22;11936;50.820;4.336;2023-04-21T01:31:03;10.70;99.90
23520;DHT22;11936;50.820;4.336;2023-04-21T01:33:29;10.60;99.90
23520;DHT22;11936;50.820;4.336;2023-04-21T01:35:55;10.70;99.90
23520;DHT22;11936;50.820;4.336;2023-04-21T01:38:21;10.70;99.90
23520;DHT22;11936;50.820;4.336;2023-04-21T01:40:49;10.70;99.90
23520;DHT22;11936;50.820;4.336;2023-04-21T01:43:19;10.80;99.90
23520;DHT22;11936;50.820;4.336;2023-04-21T01:45:46;10.80;99.90
23520;DHT22;11936;50.820;4.336;2023-04-21T01:48:11;10.80;99.90
23520;DHT22;11936;50.820;4.336;2023-04-21T01:50:37;10.80;99.90
23520;DHT22;11936;50.820;4.336;2023-04-21T01:53:03;10.70;99.90
23520;DHT22;11936;50.820;4.336;2023-04-21T01:55:28;10.80;99.90
23520;DHT22;11936;50.820;4.336;2023-04-21T01:57:54;10.70;99.90
23520;DHT22;11936;50.820;4.336;2023-04-21T02:00:22;10.70;99.90
23520;DHT22;11936;50.820;4.336;2023-04-21T02:02:48;10.60;99.90
23520;DHT22;11936;50.820;4.336;2023-04-21T02:05:13;10.40;99.90
23520;DHT22;11936;50.820;4.336;2023-04-21T02:07:39;10.50;99.90
23520;DHT22;11936;50.820;4.336;2023-04-21T02:10:05;10.50;99.90
23520;DHT22;11936;50.820;4.336;2023-04-21T02:12:31;10.50;99.90
23520;DHT22;11936;50.820;4.336;2023-04-21T02:14:57;10.60;99.90
23520;DHT22;11936;50.820;4.336;2023-04-21T02:17:22;10.70;99.90
23520;DHT22;11936;50.820;4.336;2023-04-21T02:19:48;10.60;99.90
23520;DHT22;11936;50.820;4.336;2023-04-21T02:22:14;10.60;99.90
23520;DHT22;11936;50.820;4.336;2023-04-21T02:24:39;10.60;99.90
23520;DHT22;11936;50.820;4.336;2023-04-21T02:27:05;10.60;99.90
23520;DHT22;11936;50.820;4.336;2023-04-21T02:29:31;10.60;99.90
23520;DHT22;11936;50.820;4.336;2023-04-21T02:31:56;10.50;99.90
23520;DHT22;11936;50.820;4.336;2023-04-21T02:34:22;10.50;99.90
23520;DHT22;11936;50.820;4.336;2023-04-21T02:36:48;10.50;99.90
23520;DHT22;11936;50.820;4.336;2023-04-21T02:39:13;10.70;99.90
23520;DHT22;11936;50.820;4.336;2023-04-21T02:41:39;10.70;99.90
23520;DHT22;11936;50.820;4.336;2023-04-21T02:44:05;10.60;99.90
23520;DHT22;11936;50.820;4.336;2023-04-21T02:46:30;10.60;99.90
23520;DHT22;11936;50.820;4.336;2023-04-21T02:48:56;10.60;99.90
23520;DHT22;11936;50.820;4.336;2023-04-21T02:51:22;10.70;99.90
23520;DHT22;11936;50.820;4.336;2023-04-21T02:53:47;10.70;99.90
23520;DHT22;11936;50.820;4.336;2023-04-21T02:56:13;10.80;99.90
23520;DHT22;11936;50.820;4.336;2023-04-21T02:58:39;10.70;99.90
23520;DHT22;11936;50.820;4.336;2023-04-21T03:01:05;10.80;99.90
23520;DHT22;11936;50.820;4.336;2023-04-21T03:03:31;10.70;99.90
23520;DHT22;11936;50.820;4.336;2023-04-21T03:05:57;10.60;99.90
23520;DHT22;11936;50.820;4.336;2023-04-21T03:08:23;10.50;99.90
23520;DHT22;11936;50.820;4.336;2023-04-21T03:10:49;10.50;99.90
23520;DHT22;11936;50.820;4.336;2023-04-21T03:13:15;10.50;99.90
23520;DHT22;11936;50.820;4.336;2023-04-21T03:15:41;10.40;99.90
23520;DHT22;11936;50.820;4.336;2023-04-21T03:18:07;10.50;99.90
23520;DHT22;11936;50.820;4.336;2023-04-21T03:20:32;10.50;99.90
23520;DHT22;11936;50.820;4.336;2023-04-21T03:22:58;10.50;99.90
23520;DHT22;11936;50.820;4.336;2023-04-21T03:25:24;10.50;99.90
23520;DHT22;11936;50.820;4.336;2023-04-21T03:27:52;10.50;99.90
23520;DHT22;11936;50.820;4.336;2023-04-21T03:30:18;10.40;99.90
23520;DHT22;11936;50.820;4.336;2023-04-21T03:32:44;10.50;99.90
23520;DHT22;11936;50.820;4.336;2023-04-21T03:35:09;10.50;99.90
23520;DHT22;11936;50.820;4.336;2023-04-21T03:37:35;10.50;99.90
23520;DHT22;11936;50.820;4.336;2023-04-21T03:40:01;10.60;99.90
23520;DHT22;11936;50.820;4.336;2023-04-21T03:42:27;10.60;99.90
23520;DHT22;11936;50.820;4.336;2023-04-21T03:44:55;10.60;99.90
23520;DHT22;11936;50.820;4.336;2023-04-21T03:47:20;10.60;99.90
23520;DHT22;11936;50.820;4.336;2023-04-21T03:49:46;10.60;99.90
23520;DHT22;11936;50.820;4.336;2023-04-21T03:52:11;10.50;99.90
23520;DHT22;11936;50.820;4.336;2023-04-21T03:54:37;10.50;99.90
23520;DHT22;11936;50.820;4.336;2023-04-21T03:57:03;10.50;99.90
23520;DHT22;11936;50.820;4.336;2023-04-21T03:59:28;10.60;99.90
23520;DHT22;11936;50.820;4.336;2023-04-21T04:01:54;10.50;99.90
23520;DHT22;11936;50.820;4.336;2023-04-21T04:04:19;10.50;99.90
23520;DHT22;11936;50.820;4.336;2023-04-21T04:06:45;10.40;99.90
23520;DHT22;11936;50.820;4.336;2023-04-21T04:09:11;10.30;99.90
23520;DHT22;11936;50.820;4.336;2023-04-21T04:11:36;10.40;99.90
23520;DHT22;11936;50.820;4.336;2023-04-21T04:14:02;10.40;99.90
23520;DHT22;11936;50.820;4.336;2023-04-21T04:16:28;10.40;99.90
23520;DHT22;11936;50.820;4.336;2023-04-21T04:18:54;10.50;99.90
23520;DHT22;11936;50.820;4.336;2023-04-21T04:21:20;10.60;99.90
23520;DHT22;11936;50.820;4.336;2023-04-21T04:23:45;10.50;99.90
23520;DHT22;11936;50.820;4.336;2023-04-21T04:26:11;10.60;99.90
23520;DHT22;11936;50.820;4.336;2023-04-21T04:28:37;10.60;99.90
23520;DHT22;11936;50.820;4.336;2023-04-21T04:31:02;10.50;99.90
23520;DHT22;11936;50.820;4.336;2023-04-21T04:33:28;10.40;99.90
23520;DHT22;11936;50.820;4.336;2023-04-21T04:35:54;10.50;99.90
23520;DHT22;11936;50.820;4.336;2023-04-21T04:38:19;10.50;99.90
23520;DHT22;11936;50.820;4.336;2023-04-21T04:40:53;10.50;99.90
23520;DHT22;11936;50.820;4.336;2023-04-21T04:43:19;10.40;99.90
23520;DHT22;11936;50.820;4.336;2023-04-21T04:45:44;10.40;99.90
23520;DHT22;11936;50.820;4.336;2023-04-21T04:48:10;10.30;99.90
23520;DHT22;11936;50.820;4.336;2023-04-21T04:50:35;10.30;99.90
23520;DHT22;11936;50.820;4.336;2023-04-21T04:53:01;10.40;99.90
23520;DHT22;11936;50.820;4.336;2023-04-21T04:55:27;10.40;99.90
23520;DHT22;11936;50.820;4.336;2023-04-21T04:57:52;10.40;99.90
23520;DHT22;11936;50.820;4.336;2023-04-21T05:00:18;10.40;99.90
23520;DHT22;11936;50.820;4.336;2023-04-21T05:02:44;10.40;99.90
23520;DHT22;11936;50.820;4.336;2023-04-21T05:05:10;10.40;99.90
23520;DHT22;11936;50.820;4.336;2023-04-21T05:07:36;10.40;99.90
23520;DHT22;11936;50.820;4.336;2023-04-21T05:10:01;10.30;99.90
23520;DHT22;11936;50.820;4.336;2023-04-21T05:12:29;10.30;99.90
23520;DHT22;11936;50.820;4.336;2023-04-21T05:14:56;10.20;99.90
23520;DHT22;11936;50.820;4.336;2023-04-21T05:17:22;10.20;99.90
23520;DHT22;11936;50.820;4.336;2023-04-21T05:19:47;10.20;99.90
23520;DHT22;11936;50.820;4.336;2023-04-21T05:22:13;10.10;99.90
23520;DHT22;11936;50.820;4.336;2023-04-21T05:24:40;10.20;99.90
23520;DHT22;11936;50.820;4.336;2023-04-21T05:27:07;10.10;99.90
23520;DHT22;11936;50.820;4.336;2023-04-21T05:29:32;10.20;99.90
23520;DHT22;11936;50.820;4.336;2023-04-21T05:31:58;10.30;99.90
23520;DHT22;11936;50.820;4.336;2023-04-21T05:34:24;10.30;99.90
23520;DHT22;11936;50.820;4.336;2023-04-21T05:36:50;10.40;99.90
23520;DHT22;11936;50.820;4.336;2023-04-21T05:39:16;10.50;99.90
23520;DHT22;11936;50.820;4.336;2023-04-21T05:41:42;10.60;99.90
23520;DHT22;11936;50.820;4.336;2023-04-21T05:44:08;10.50;99.90
23520;DHT22;11936;50.820;4.336;2023-04-21T05:46:33;10.40;99.90
23520;DHT22;11936;50.820;4.336;2023-04-21T05:49:00;10.40;99.90
23520;DHT22;11936;50.820;4.336;2023-04-21T05:51:28;10.30;99.90
23520;DHT22;11936;50.820;4.336;2023-04-21T05:53:55;10.20;99.90
23520;DHT22;11936;50.820;4.336;2023-04-21T05:56:20;10.20;99.90
23520;DHT22;11936;50.820;4.336;2023-04-21T05:58:46;10.20;99.90
23520;DHT22;11936;50.820;4.336;2023-04-21T06:01:12;10.40;99.90
23520;DHT22;11936;50.820;4.336;2023-04-21T06:03:38;10.40;99.90
23520;DHT22;11936;50.820;4.336;2023-04-21T06:06:04;10.40;99.90
23520;DHT22;11936;50.820;4.336;2023-04-21T06:08:30;10.40;99.90
23520;DHT22;11936;50.820;4.336;2023-04-21T06:10:56;10.30;99.90
23520;DHT22;11936;50.820;4.336;2023-04-21T06:13:22;10.30;99.90
23520;DHT22;11936;50.820;4.336;2023-04-21T06:15:48;10.20;99.90
23520;DHT22;11936;50.820;4.336;2023-04-21T06:18:13;10.20;99.90
23520;DHT22;11936;50.820;4.336;2023-04-21T06:20:40;10.20;99.90
23520;DHT22;11936;50.820;4.336;2023-04-21T06:23:06;10.20;99.90
23520;DHT22;11936;50.820;4.336;2023-04-21T06:25:31;10.20;99.90
23520;DHT22;11936;50.820;4.336;2023-04-21T06:27:58;10.20;99.90
23520;DHT22;11936;50.820;4.336;2023-04-21T06:30:23;10.20;99.90
23520;DHT22;11936;50.820;4.336;2023-04-21T06:32:49;10.20;99.90
23520;DHT22;11936;50.820;4.336;2023-04-21T06:35:15;10.20;99.90
23520;DHT22;11936;50.820;4.336;2023-04-21T06:37:41;10.20;99.90
23520;DHT22;11936;50.820;4.336;2023-04-21T06:40:07;10.20;99.90
23520;DHT22;11936;50.820;4.336;2023-04-21T06:42:33;10.30;99.90
23520;DHT22;11936;50.820;4.336;2023-04-21T06:44:59;10.40;99.90
23520;DHT22;11936;50.820;4.336;2023-04-21T06:47:24;10.40;99.90
23520;DHT22;11936;50.820;4.336;2023-04-21T06:49:50;10.50;99.90
23520;DHT22;11936;50.820;4.336;2023-04-21T06:52:16;10.50;99.90
23520;DHT22;11936;50.820;4.336;2023-04-21T06:54:41;10.50;99.90
23520;DHT22;11936;50.820;4.336;2023-04-21T06:57:07;10.60;99.90
23520;DHT22;11936;50.820;4.336;2023-04-21T06:59:33;10.70;99.90
23520;DHT22;11936;50.820;4.336;2023-04-21T07:01:59;10.60;99.90
23520;DHT22;11936;50.820;4.336;2023-04-21T07:04:25;10.70;99.90
23520;DHT22;11936;50.820;4.336;2023-04-21T07:06:54;10.80;99.90
23520;DHT22;11936;50.820;4.336;2023-04-21T07:09:20;10.80;99.90
23520;DHT22;11936;50.820;4.336;2023-04-21T07:11:46;10.90;99.90
23520;DHT22;11936;50.820;4.336;2023-04-21T07:14:11;10.90;99.90
23520;DHT22;11936;50.820;4.336;2023-04-21T07:16:37;10.90;99.90
23520;DHT22;11936;50.820;4.336;2023-04-21T07:19:03;10.80;99.90
23520;DHT22;11936;50.820;4.336;2023-04-21T07:21:29;10.90;99.90
23520;DHT22;11936;50.820;4.336;2023-04-21T07:23:56;11.00;99.90
23520;DHT22;11936;50.820;4.336;2023-04-21T07:26:23;11.00;99.90
23520;DHT22;11936;50.820;4.336;2023-04-21T07:28:49;11.10;99.90
23520;DHT22;11936;50.820;4.336;2023-04-21T07:31:16;11.10;99.90
23520;DHT22;11936;50.820;4.336;2023-04-21T07:33:42;11.10;99.90
23520;DHT22;11936;50.820;4.336;2023-04-21T07:36:08;11.10;99.90
23520;DHT22;11936;50.820;4.336;2023-04-21T07:38:33;11.10;99.90
23520;DHT22;11936;50.820;4.336;2023-04-21T07:40:59;11.00;99.90
23520;DHT22;11936;50.820;4.336;2023-04-21T07:43:25;11.10;99.90
23520;DHT22;11936;50.820;4.336;2023-04-21T07:45:51;11.10;99.90
23520;DHT22;11936;50.820;4.336;2023-04-21T07:48:17;11.20;99.90
23520;DHT22;11936;50.820;4.336;2023-04-21T07:50:43;11.20;99.90
23520;DHT22;11936;50.820;4.336;2023-04-21T07:53:09;11.30;99.90
23520;DHT22;11936;50.820;4.336;2023-04-21T07:55:34;11.30;99.90
23520;DHT22;11936;50.820;4.336;2023-04-21T07:58:02;11.40;99.90
23520;DHT22;11936;50.820;4.336;2023-04-21T08:00:28;11.40;99.90
23520;DHT22;11936;50.820;4.336;2023-04-21T08:02:54;11.40;99.90
23520;DHT22;11936;50.820;4.336;2023-04-21T08:05:20;11.50;99.90
23520;DHT22;11936;50.820;4.336;2023-04-21T08:07:45;11.60;99.90
23520;DHT22;11936;50.820;4.336;2023-04-21T08:10:11;11.70;99.90
23520;DHT22;11936;50.820;4.336;2023-04-21T08:12:37;11.60;99.90
23520;DHT22;11936;50.820;4.336;2023-04-21T08:15:03;11.70;99.90
23520;DHT22;11936;50.820;4.336;2023-04-21T08:17:32;11.70;99.90
23520;DHT22;11936;50.820;4.336;2023-04-21T08:19:57;11.80;99.90
23520;DHT22;11936;50.820;4.336;2023-04-21T08:22:23;11.90;99.90
23520;DHT22;11936;50.820;4.336;2023-04-21T08:24:48;11.90;99.90
23520;DHT22;11936;50.820;4.336;2023-04-21T08:27:14;12.00;99.90
23520;DHT22;11936;50.820;4.336;2023-04-21T08:29:40;12.00;99.90
23520;DHT22;11936;50.820;4.336;2023-04-21T08:32:05;12.00;99.90
23520;DHT22;11936;50.820;4.336;2023-04-21T08:34:31;12.10;99.90
23520;DHT22;11936;50.820;4.336;2023-04-21T08:36:57;12.20;99.90
23520;DHT22;11936;50.820;4.336;2023-04-21T08:39:22;12.30;99.90
23520;DHT22;11936;50.820;4.336;2023-04-21T08:41:48;12.30;99.90
23520;DHT22;11936;50.820;4.336;2023-04-21T08:44:15;12.40;99.90
23520;DHT22;11936;50.820;4.336;2023-04-21T08:46:44;12.50;99.90
23520;DHT22;11936;50.820;4.336;2023-04-21T08:49:10;12.60;99.90
23520;DHT22;11936;50.820;4.336;2023-04-21T08:51:37;12.70;99.90
23520;DHT22;11936;50.820;4.336;2023-04-21T08:54:02;12.50;99.90
23520;DHT22;11936;50.820;4.336;2023-04-21T08:56:28;12.40;99.90
23520;DHT22;11936;50.820;4.336;2023-04-21T08:58:54;12.50;99.90
23520;DHT22;11936;50.820;4.336;2023-04-21T09:01:20;12.40;99.90
23520;DHT22;11936;50.820;4.336;2023-04-21T09:03:46;12.50;99.90
23520;DHT22;11936;50.820;4.336;2023-04-21T09:06:11;12.60;99.90
23520;DHT22;11936;50.820;4.336;2023-04-21T09:08:41;12.60;99.90
23520;DHT22;11936;50.820;4.336;2023-04-21T09:11:08;12.70;99.90
23520;DHT22;11936;50.820;4.336;2023-04-21T09:13:37;12.80;99.90
23520;DHT22;11936;50.820;4.336;2023-04-21T09:16:13;12.80;99.90
23520;DHT22;11936;50.820;4.336;2023-04-21T09:18:39;12.80;99.90
23520;DHT22;11936;50.820;4.336;2023-04-21T09:21:09;13.00;99.90
23520;DHT22;11936;50.820;4.336;2023-04-21T09:23:45;13.00;99.90
23520;DHT22;11936;50.820;4.336;2023-04-21T09:26:12;12.90;99.90
23520;DHT22;11936;50.820;4.336;2023-04-21T09:28:45;12.80;99.90
23520;DHT22;11936;50.820;4.336;2023-04-21T09:31:18;12.90;99.90
23520;DHT22;11936;50.820;4.336;2023-04-21T09:33:56;12.90;99.90
23520;DHT22;11936;50.820;4.336;2023-04-21T09:36:25;12.90;99.90
23520;DHT22;11936;50.820;4.336;2023-04-21T09:39:00;12.90;99.90
23520;DHT22;11936;50.820;4.336;2023-04-21T09:41:30;13.00;99.90
23520;DHT22;11936;50.820;4.336;2023-04-21T09:43:56;13.20;99.90
23520;DHT22;11936;50.820;4.336;2023-04-21T09:46:25;13.30;99.90
23520;DHT22;11936;50.820;4.336;2023-04-21T09:48:55;13.30;99.90
23520;DHT22;11936;50.820;4.336;2023-04-21T09:51:23;13.50;99.90
23520;DHT22;11936;50.820;4.336;2023-04-21T09:53:52;13.30;99.90
23520;DHT22;11936;50.820;4.336;2023-04-21T09:56:23;13.40;99.90
23520;DHT22;11936;50.820;4.336;2023-04-21T09:58:52;13.40;99.90
23520;DHT22;11936;50.820;4.336;2023-04-21T10:01:19;13.30;99.90
23520;DHT22;11936;50.820;4.336;2023-04-21T10:03:47;13.40;99.90
23520;DHT22;11936;50.820;4.336;2023-04-21T10:06:13;13.30;99.90
23520;DHT22;11936;50.820;4.336;2023-04-21T10:08:39;13.40;99.90
23520;DHT22;11936;50.820;4.336;2023-04-21T10:11:06;13.30;99.90
23520;DHT22;11936;50.820;4.336;2023-04-21T10:13:32;13.30;99.90
23520;DHT22;11936;50.820;4.336;2023-04-21T10:16:06;13.50;99.90
23520;DHT22;11936;50.820;4.336;2023-04-21T10:18:36;13.40;99.90
23520;DHT22;11936;50.820;4.336;2023-04-21T10:21:10;13.50;99.90
23520;DHT22;11936;50.820;4.336;2023-04-21T10:23:38;13.50;99.90
23520;DHT22;11936;50.820;4.336;2023-04-21T10:37:06;13.90;99.90
23520;DHT22;11936;50.820;4.336;2023-04-21T10:39:44;14.10;99.90
23520;DHT22;11936;50.820;4.336;2023-04-21T10:45:05;14.10;99.90
23520;DHT22;11936;50.820;4.336;2023-04-21T10:47:47;14.30;99.90
23520;DHT22;11936;50.820;4.336;2023-04-21T10:55:24;14.20;99.90
23520;DHT22;11936;50.820;4.336;2023-04-21T10:57:50;14.30;99.90
23520;DHT22;11936;50.820;4.336;2023-04-21T11:00:19;14.50;99.90
23520;DHT22;11936;50.820;4.336;2023-04-21T11:02:59;14.60;99.90
23520;DHT22;11936;50.820;4.336;2023-04-21T11:05:32;14.70;99.90
23520;DHT22;11936;50.820;4.336;2023-04-21T11:08:05;14.70;99.90
23520;DHT22;11936;50.820;4.336;2023-04-21T11:10:51;14.70;99.90
23520;DHT22;11936;50.820;4.336;2023-04-21T11:13:23;14.70;99.80
23520;DHT22;11936;50.820;4.336;2023-04-21T11:15:59;14.70;99.90
23520;DHT22;11936;50.820;4.336;2023-04-21T11:18:38;14.80;99.80
23520;DHT22;11936;50.820;4.336;2023-04-21T11:21:09;14.90;99.30
23520;DHT22;11936;50.820;4.336;2023-04-21T11:23:38;15.00;98.80
23520;DHT22;11936;50.820;4.336;2023-04-21T11:26:04;15.10;99.20
23520;DHT22;11936;50.820;4.336;2023-04-21T11:28:30;15.20;98.90
23520;DHT22;11936;50.820;4.336;2023-04-21T11:30:55;15.20;98.30
23520;DHT22;11936;50.820;4.336;2023-04-21T11:33:21;15.20;97.20
23520;DHT22;11936;50.820;4.336;2023-04-21T11:35:46;15.20;97.30
23520;DHT22;11936;50.820;4.336;2023-04-21T11:38:12;15.20;97.50
23520;DHT22;11936;50.820;4.336;2023-04-21T11:40:47;15.30;97.40
23520;DHT22;11936;50.820;4.336;2023-04-21T11:43:12;15.20;96.70
23520;DHT22;11936;50.820;4.336;2023-04-21T11:45:41;15.30;97.30
23520;DHT22;11936;50.820;4.336;2023-04-21T11:48:16;15.40;96.80
23520;DHT22;11936;50.820;4.336;2023-04-21T11:50:49;15.50;96.80
23520;DHT22;11936;50.820;4.336;2023-04-21T11:53:15;15.50;96.60
23520;DHT22;11936;50.820;4.336;2023-04-21T11:55:47;15.50;96.10
23520;DHT22;11936;50.820;4.336;2023-04-21T11:58:12;15.70;96.30
23520;DHT22;11936;50.820;4.336;2023-04-21T12:00:43;15.80;96.10
23520;DHT22;11936;50.820;4.336;2023-04-21T12:03:12;15.90;95.30
23520;DHT22;11936;50.820;4.336;2023-04-21T12:05:38;15.90;94.70
23520;DHT22;11936;50.820;4.336;2023-04-21T12:08:03;16.00;95.40
23520;DHT22;11936;50.820;4.336;2023-04-21T12:10:31;16.00;95.20
23520;DHT22;11936;50.820;4.336;2023-04-21T12:12:56;16.00;95.00
23520;DHT22;11936;50.820;4.336;2023-04-21T12:15:22;16.10;94.50
23520;DHT22;11936;50.820;4.336;2023-04-21T12:17:50;16.00;94.60
23520;DHT22;11936;50.820;4.336;2023-04-21T12:20:20;16.00;94.40
23520;DHT22;11936;50.820;4.336;2023-04-21T12:22:47;16.10;94.00
23520;DHT22;11936;50.820;4.336;2023-04-21T12:25:13;16.10;93.80
23520;DHT22;11936;50.820;4.336;2023-04-21T12:27:52;16.20;94.00
23520;DHT22;11936;50.820;4.336;2023-04-21T12:30:19;16.30;93.70
23520;DHT22;11936;50.820;4.336;2023-04-21T12:32:45;16.40;93.60
23520;DHT22;11936;50.820;4.336;2023-04-21T12:35:12;16.50;92.40
23520;DHT22;11936;50.820;4.336;2023-04-21T12:37:37;16.50;92.20
23520;DHT22;11936;50.820;4.336;2023-04-21T12:40:04;16.60;91.80
23520;DHT22;11936;50.820;4.336;2023-04-21T12:42:30;16.70;91.20
23520;DHT22;11936;50.820;4.336;2023-04-21T12:44:56;16.70;90.60
23520;DHT22;11936;50.820;4.336;2023-04-21T12:47:21;16.70;90.70
23520;DHT22;11936;50.820;4.336;2023-04-21T12:49:47;16.70;91.30
23520;DHT22;11936;50.820;4.336;2023-04-21T12:52:13;16.70;90.50
23520;DHT22;11936;50.820;4.336;2023-04-21T12:54:38;16.50;90.70
23520;DHT22;11936;50.820;4.336;2023-04-21T12:57:05;16.60;90.70
23520;DHT22;11936;50.820;4.336;2023-04-21T12:59:31;16.70;90.60
23520;DHT22;11936;50.820;4.336;2023-04-21T13:01:57;16.70;89.00
23520;DHT22;11936;50.820;4.336;2023-04-21T13:04:22;16.60;88.80
23520;DHT22;11936;50.820;4.336;2023-04-21T13:06:48;16.60;88.80
23520;DHT22;11936;50.820;4.336;2023-04-21T13:09:14;16.70;89.30
23520;DHT22;11936;50.820;4.336;2023-04-21T13:11:40;16.70;89.00
23520;DHT22;11936;50.820;4.336;2023-04-21T13:14:14;16.90;89.00
23520;DHT22;11936;50.820;4.336;2023-04-21T13:16:41;17.00;89.10
23520;DHT22;11936;50.820;4.336;2023-04-21T13:19:07;17.00;88.50
23520;DHT22;11936;50.820;4.336;2023-04-21T13:21:33;17.10;88.50
23520;DHT22;11936;50.820;4.336;2023-04-21T13:23:58;17.30;89.30
23520;DHT22;11936;50.820;4.336;2023-04-21T13:26:27;17.20;89.50
23520;DHT22;11936;50.820;4.336;2023-04-21T13:28:53;17.40;90.20
23520;DHT22;11936;50.820;4.336;2023-04-21T13:31:18;17.50;88.70
23520;DHT22;11936;50.820;4.336;2023-04-21T13:33:44;17.60;88.60
23520;DHT22;11936;50.820;4.336;2023-04-21T13:36:10;17.80;88.10
23520;DHT22;11936;50.820;4.336;2023-04-21T13:38:36;17.90;88.30
23520;DHT22;11936;50.820;4.336;2023-04-21T13:41:03;18.00;87.20
23520;DHT22;11936;50.820;4.336;2023-04-21T13:43:29;18.10;87.20
23520;DHT22;11936;50.820;4.336;2023-04-21T13:45:56;18.00;85.50
23520;DHT22;11936;50.820;4.336;2023-04-21T13:48:22;17.80;86.80
23520;DHT22;11936;50.820;4.336;2023-04-21T13:50:49;17.80;86.80
23520;DHT22;11936;50.820;4.336;2023-04-21T13:53:15;17.90;87.50
23520;DHT22;11936;50.820;4.336;2023-04-21T13:55:43;17.90;85.80
23520;DHT22;11936;50.820;4.336;2023-04-21T13:58:09;17.90;87.40
23520;DHT22;11936;50.820;4.336;2023-04-21T14:00:36;18.20;86.40
23520;DHT22;11936;50.820;4.336;2023-04-21T14:03:01;18.30;86.90
23520;DHT22;11936;50.820;4.336;2023-04-21T14:05:27;18.30;88.80
23520;DHT22;11936;50.820;4.336;2023-04-21T14:07:53;18.40;87.20
23520;DHT22;11936;50.820;4.336;2023-04-21T14:10:18;18.60;86.20
23520;DHT22;11936;50.820;4.336;2023-04-21T14:12:44;18.40;83.50
23520;DHT22;11936;50.820;4.336;2023-04-21T14:15:11;18.40;84.60
23520;DHT22;11936;50.820;4.336;2023-04-21T14:17:37;18.40;82.60
23520;DHT22;11936;50.820;4.336;2023-04-21T14:20:03;18.30;83.40
23520;DHT22;11936;50.820;4.336;2023-04-21T14:22:29;17.90;82.60
23520;DHT22;11936;50.820;4.336;2023-04-21T14:24:54;18.00;82.80
23520;DHT22;11936;50.820;4.336;2023-04-21T14:27:20;18.00;82.10
23520;DHT22;11936;50.820;4.336;2023-04-21T14:29:46;17.90;82.50
23520;DHT22;11936;50.820;4.336;2023-04-21T14:32:12;17.80;82.30
23520;DHT22;11936;50.820;4.336;2023-04-21T14:34:37;17.80;81.80
23520;DHT22;11936;50.820;4.336;2023-04-21T14:37:03;17.90;82.50
23520;DHT22;11936;50.820;4.336;2023-04-21T14:39:29;17.90;82.30
23520;DHT22;11936;50.820;4.336;2023-04-21T14:41:55;17.70;82.60
23520;DHT22;11936;50.820;4.336;2023-04-21T14:44:20;17.70;83.40
23520;DHT22;11936;50.820;4.336;2023-04-21T14:46:46;17.70;83.90
23520;DHT22;11936;50.820;4.336;2023-04-21T14:49:12;17.70;83.80
23520;DHT22;11936;50.820;4.336;2023-04-21T14:51:38;17.70;83.80
23520;DHT22;11936;50.820;4.336;2023-04-21T14:54:06;17.60;84.50
23520;DHT22;11936;50.820;4.336;2023-04-21T14:56:32;17.50;84.60
23520;DHT22;11936;50.820;4.336;2023-04-21T14:58:58;17.40;85.50
23520;DHT22;11936;50.820;4.336;2023-04-21T15:01:23;17.40;85.80
23520;DHT22;11936;50.820;4.336;2023-04-21T15:03:49;17.40;85.40
23520;DHT22;11936;50.820;4.336;2023-04-21T15:06:15;17.60;84.30
23520;DHT22;11936;50.820;4.336;2023-04-21T15:08:40;17.70;84.90
23520;DHT22;11936;50.820;4.336;2023-04-21T15:11:06;17.70;84.40
23520;DHT22;11936;50.820;4.336;2023-04-21T15:13:32;17.70;84.70
23520;DHT22;11936;50.820;4.336;2023-04-21T15:15:57;17.70;84.60
23520;DHT22;11936;50.820;4.336;2023-04-21T15:18:23;17.60;84.60
23520;DHT22;11936;50.820;4.336;2023-04-21T15:20:49;17.60;85.00
23520;DHT22;11936;50.820;4.336;2023-04-21T15:23:15;17.60;86.20
23520;DHT22;11936;50.820;4.336;2023-04-21T15:25:41;17.60;86.00
23520;DHT22;11936;50.820;4.336;2023-04-21T15:28:06;17.60;85.10
23520;DHT22;11936;50.820;4.336;2023-04-21T15:30:33;17.60;83.50
23520;DHT22;11936;50.820;4.336;2023-04-21T15:32:58;17.50;83.50
23520;DHT22;11936;50.820;4.336;2023-04-21T15:35:25;17.50;83.50
23520;DHT22;11936;50.820;4.336;2023-04-21T15:37:51;17.50;84.20
23520;DHT22;11936;50.820;4.336;2023-04-21T15:40:17;17.60;84.80
23520;DHT22;11936;50.820;4.336;2023-04-21T15:42:42;17.50;85.10
23520;DHT22;11936;50.820;4.336;2023-04-21T15:45:08;17.50;86.40